createdAt,value
2024-02-14T00:01:16.239Z,2.70
2024-02-14T00:03:44.429Z,2.70
2024-02-14T00:06:14.614Z,2.70
2024-02-14T00:08:43.006Z,2.70
2024-02-14T00:11:11.182Z,2.60
2024-02-14T00:13:39.264Z,2.60
2024-02-14T00:16:09.533Z,2.60
2024-02-14T00:18:37.763Z,2.60
2024-02-14T00:21:06.243Z,2.50
2024-02-14T00:23:35.777Z,2.50
2024-02-14T00:26:03.924Z,2.50
2024-02-14T00:28:32.029Z,2.50
2024-02-14T00:31:00.473Z,2.40
2024-02-14T00:33:28.737Z,2.40
2024-02-14T00:35:57.076Z,2.30
2024-02-14T00:38:25.198Z,2.30
2024-02-14T00:40:55.010Z,2.30
2024-02-14T00:43:23.113Z,2.30
2024-02-14T00:45:51.556Z,2.30
2024-02-14T00:48:19.820Z,2.20
2024-02-14T00:50:48.150Z,2.20
2024-02-14T00:53:16.289Z,2.20
2024-02-14T00:55:44.365Z,2.10
2024-02-14T00:58:13.857Z,2.10
2024-02-14T01:00:42.190Z,2.10
2024-02-14T01:03:14.002Z,2.20
2024-02-14T01:05:42.321Z,2.10
2024-02-14T01:08:10.448Z,2.10
2024-02-14T01:10:38.550Z,2.00
2024-02-14T01:13:07.760Z,2.00
2024-02-14T01:15:37.223Z,2.00
2024-02-14T01:18:05.486Z,2.00
2024-02-14T01:20:33.775Z,1.80
2024-02-14T01:23:01.889Z,1.90
2024-02-14T01:25:30.002Z,1.80
2024-02-14T01:27:58.583Z,1.80
2024-02-14T01:30:26.759Z,1.90
2024-02-14T01:32:56.568Z,1.80
2024-02-14T01:35:24.907Z,1.80
2024-02-14T01:37:53.804Z,1.90
2024-02-14T01:40:22.092Z,1.90
2024-02-14T01:42:50.161Z,1.90
2024-02-14T01:45:18.392Z,1.90
2024-02-14T01:47:46.602Z,1.90
2024-02-14T01:50:16.115Z,1.90
2024-02-14T01:52:45.268Z,1.90
2024-02-14T01:55:13.380Z,1.90
2024-02-14T01:57:41.572Z,1.90
2024-02-14T02:00:10.539Z,1.90
2024-02-14T02:02:42.000Z,1.90
2024-02-14T02:05:17.257Z,1.80
2024-02-14T02:07:45.440Z,1.90
2024-02-14T02:10:13.700Z,1.80
2024-02-14T02:12:41.890Z,1.90
2024-02-14T02:15:12.271Z,1.80
2024-02-14T02:17:40.691Z,1.90
2024-02-14T02:20:10.237Z,1.90
2024-02-14T02:22:39.759Z,1.90
2024-02-14T02:25:10.068Z,1.90
2024-02-14T02:27:38.978Z,1.90
2024-02-14T02:30:09.545Z,1.90
2024-02-14T02:32:38.088Z,1.90
2024-02-14T02:35:07.060Z,1.90
2024-02-14T02:37:35.145Z,1.90
2024-02-14T02:40:03.287Z,1.90
2024-02-14T02:42:32.704Z,1.90
2024-02-14T02:45:00.850Z,1.90
2024-02-14T02:47:29.017Z,1.90
2024-02-14T02:49:58.279Z,1.90
2024-02-14T02:52:26.358Z,1.90
2024-02-14T02:54:54.466Z,1.90
2024-02-14T02:57:22.542Z,1.80
2024-02-14T02:59:52.027Z,1.90
2024-02-14T03:02:20.135Z,1.90
2024-02-14T03:04:52.541Z,1.90
2024-02-14T03:07:22.126Z,1.90
2024-02-14T03:09:50.281Z,1.90
2024-02-14T03:12:20.117Z,2.00
2024-02-14T03:14:48.412Z,2.00
2024-02-14T03:17:18.039Z,2.00
2024-02-14T03:19:46.712Z,2.00
2024-02-14T03:22:14.933Z,2.00
2024-02-14T03:24:45.226Z,2.10
2024-02-14T03:27:13.394Z,2.10
2024-02-14T03:29:42.158Z,2.10
2024-02-14T03:32:10.452Z,2.10
2024-02-14T03:34:39.954Z,2.10
2024-02-14T03:37:08.593Z,2.20
2024-02-14T03:39:36.730Z,2.20
2024-02-14T03:42:08.884Z,2.20
2024-02-14T03:44:39.281Z,2.20
2024-02-14T03:47:07.625Z,2.30
2024-02-14T03:49:36.223Z,2.30
2024-02-14T03:52:10.842Z,2.30
2024-02-14T03:54:39.011Z,2.30
2024-02-14T03:57:09.591Z,2.40
2024-02-14T03:59:39.948Z,2.40
2024-02-14T04:02:11.439Z,2.40
2024-02-14T04:04:39.850Z,2.40
2024-02-14T04:07:09.804Z,2.50
2024-02-14T04:09:37.969Z,2.50
2024-02-14T04:12:07.151Z,2.50
2024-02-14T04:14:35.348Z,2.60
2024-02-14T04:17:03.718Z,2.60
2024-02-14T04:19:31.948Z,2.60
2024-02-14T04:22:00.287Z,2.70
2024-02-14T04:24:29.835Z,2.70
2024-02-14T04:26:58.488Z,2.70
2024-02-14T04:29:26.736Z,2.70
2024-02-14T04:31:54.819Z,2.80
2024-02-14T04:34:23.000Z,2.80
2024-02-14T04:36:51.162Z,2.80
2024-02-14T04:39:19.329Z,2.80
2024-02-14T04:41:56.682Z,2.90
2024-02-14T04:44:29.764Z,2.90
2024-02-14T04:47:00.355Z,2.90
2024-02-14T04:49:30.214Z,2.90
2024-02-14T04:51:58.626Z,2.90
2024-02-14T04:54:27.934Z,3.00
2024-02-14T04:57:00.656Z,3.00
2024-02-14T04:59:31.067Z,3.00
2024-02-14T05:01:59.271Z,3.00
2024-02-14T05:04:27.366Z,3.00
2024-02-14T05:06:58.592Z,3.00
2024-02-14T05:09:27.673Z,3.00
2024-02-14T05:11:57.116Z,3.10
2024-02-14T05:14:25.642Z,3.10
2024-02-14T05:16:54.050Z,3.10
2024-02-14T05:19:23.577Z,3.20
2024-02-14T05:21:51.769Z,3.20
2024-02-14T05:24:20.753Z,3.20
2024-02-14T05:26:49.162Z,3.20
2024-02-14T05:29:20.013Z,3.20
2024-02-14T05:31:50.102Z,3.30
2024-02-14T05:34:18.560Z,3.30
2024-02-14T05:36:48.113Z,3.30
2024-02-14T05:39:17.263Z,3.30
2024-02-14T05:41:45.606Z,3.30
2024-02-14T05:44:14.039Z,3.30
2024-02-14T05:46:43.645Z,3.30
2024-02-14T05:49:11.934Z,3.30
2024-02-14T05:51:40.089Z,3.30
2024-02-14T05:54:08.236Z,3.40
2024-02-14T05:56:36.409Z,3.40
2024-02-14T05:59:04.761Z,3.40
2024-02-14T06:01:32.901Z,3.40
2024-02-14T06:04:02.440Z,3.40
2024-02-14T06:06:30.764Z,3.40
2024-02-14T06:08:59.618Z,3.40
2024-02-14T06:11:27.988Z,3.50
2024-02-14T06:13:56.106Z,3.50
2024-02-14T06:16:24.202Z,3.50
2024-02-14T06:18:52.512Z,3.50
2024-02-14T06:21:22.183Z,3.50
2024-02-14T06:23:50.337Z,3.60
2024-02-14T06:26:18.966Z,3.60
2024-02-14T06:28:47.220Z,3.60
2024-02-14T06:31:15.484Z,3.60
2024-02-14T06:33:44.907Z,3.60
2024-02-14T06:36:13.132Z,3.70
2024-02-14T06:38:42.626Z,3.70
2024-02-14T06:41:10.703Z,3.60
2024-02-14T06:43:40.384Z,3.60
2024-02-14T06:46:08.526Z,3.60
2024-02-14T06:48:36.909Z,3.70
2024-02-14T06:51:05.594Z,3.70
2024-02-14T06:53:33.766Z,3.70
2024-02-14T06:56:03.273Z,3.70
2024-02-14T06:58:31.976Z,3.80
2024-02-14T07:01:00.982Z,3.80
2024-02-14T07:03:29.156Z,3.80
2024-02-14T07:05:57.366Z,3.70
2024-02-14T07:08:27.703Z,3.80
2024-02-14T07:10:56.514Z,3.80
2024-02-14T07:13:25.935Z,3.80
2024-02-14T07:15:54.040Z,3.90
2024-02-14T07:18:22.525Z,3.90
2024-02-14T07:20:50.739Z,3.90
2024-02-14T07:23:20.887Z,3.90
2024-02-14T07:25:49.057Z,3.90
2024-02-14T07:28:17.216Z,3.90
2024-02-14T07:30:46.828Z,4.00
2024-02-14T07:33:15.053Z,4.10
2024-02-14T07:35:44.020Z,4.10
2024-02-14T07:38:12.206Z,4.10
2024-02-14T07:40:40.830Z,4.10
2024-02-14T07:43:09.316Z,4.10
2024-02-14T07:45:37.426Z,4.10
2024-02-14T07:48:09.187Z,4.10
2024-02-14T07:50:38.354Z,4.20
2024-02-14T07:53:07.592Z,4.20
2024-02-14T07:55:35.946Z,4.20
2024-02-14T07:58:04.026Z,4.20
2024-02-14T08:00:32.165Z,4.20
2024-02-14T08:03:00.436Z,4.20
2024-02-14T08:05:30.608Z,4.20
2024-02-14T08:07:58.715Z,4.30
2024-02-14T08:10:27.222Z,4.30
2024-02-14T08:12:55.781Z,4.30
2024-02-14T08:15:23.890Z,4.30
2024-02-14T08:17:52.541Z,4.40
2024-02-14T08:20:20.779Z,4.40
2024-02-14T08:22:50.587Z,4.40
2024-02-14T08:25:18.686Z,4.40
2024-02-14T08:27:46.798Z,4.40
2024-02-14T08:30:16.291Z,4.50
2024-02-14T08:32:44.556Z,4.50
2024-02-14T08:35:15.103Z,4.50
2024-02-14T08:37:43.277Z,4.60
2024-02-14T08:40:13.737Z,4.60
2024-02-14T08:42:41.942Z,4.70
2024-02-14T08:45:11.971Z,4.70
2024-02-14T08:47:40.680Z,4.80
2024-02-14T08:50:10.274Z,4.80
2024-02-14T08:52:38.953Z,4.90
2024-02-14T08:55:12.134Z,5.00
2024-02-14T08:57:41.600Z,5.10
2024-02-14T09:00:12.126Z,5.20
2024-02-14T09:02:40.385Z,5.30
2024-02-14T09:05:10.727Z,5.40
2024-02-14T09:07:38.856Z,5.40
2024-02-14T09:10:07.704Z,5.50
2024-02-14T09:12:35.823Z,5.50
2024-02-14T09:15:06.209Z,5.60
2024-02-14T09:17:34.578Z,5.60
2024-02-14T09:20:03.657Z,5.70
2024-02-14T09:22:31.935Z,5.80
2024-02-14T09:25:00.264Z,5.90
2024-02-14T09:27:28.447Z,6.00
2024-02-14T09:29:57.669Z,6.00
2024-02-14T09:32:27.172Z,6.10
2024-02-14T09:34:55.480Z,6.10
2024-02-14T09:37:23.687Z,6.10
2024-02-14T09:39:51.783Z,6.10
2024-02-14T09:42:21.833Z,6.20
2024-02-14T09:44:50.008Z,6.20
2024-02-14T09:47:18.149Z,6.30
2024-02-14T09:49:47.690Z,6.30
2024-02-14T09:52:16.536Z,6.40
2024-02-14T09:54:44.631Z,6.40
2024-02-14T09:57:13.229Z,6.40
2024-02-14T09:59:41.359Z,6.40
2024-02-14T10:02:11.474Z,6.50
2024-02-14T10:04:40.397Z,6.50
2024-02-14T10:07:10.757Z,6.50
2024-02-14T10:09:43.082Z,6.50
2024-02-14T10:12:11.469Z,6.50
2024-02-14T10:14:39.737Z,6.50
2024-02-14T10:17:09.053Z,6.60
2024-02-14T10:19:37.227Z,6.60
2024-02-14T10:22:06.843Z,6.70
2024-02-14T10:24:36.567Z,6.70
2024-02-14T10:27:04.767Z,6.80
2024-02-14T10:29:33.484Z,6.80
2024-02-14T10:32:01.587Z,6.90
2024-02-14T10:34:29.838Z,6.90
2024-02-14T10:36:59.165Z,7.00
2024-02-14T10:39:27.651Z,7.00
2024-02-14T10:41:57.284Z,7.00
2024-02-14T10:44:26.231Z,7.00
2024-02-14T10:46:54.868Z,7.00
2024-02-14T10:49:23.164Z,7.00
2024-02-14T10:51:51.394Z,7.00
2024-02-14T10:54:20.349Z,7.00
2024-02-14T10:56:51.419Z,7.00
2024-02-14T10:59:22.177Z,7.00
2024-02-14T11:01:50.359Z,7.00
2024-02-14T11:04:18.979Z,6.90
2024-02-14T11:06:47.829Z,7.00
2024-02-14T11:09:16.935Z,7.00
2024-02-14T11:11:45.990Z,7.00
2024-02-14T11:14:17.261Z,7.00
2024-02-14T11:16:48.954Z,7.00
2024-02-14T11:19:17.786Z,7.00
2024-02-14T11:21:47.496Z,7.00
2024-02-14T11:24:17.324Z,7.10
2024-02-14T11:26:50.339Z,7.10
2024-02-14T11:29:21.887Z,7.10
2024-02-14T11:32:00.458Z,7.10
2024-02-14T11:34:29.029Z,7.10
2024-02-14T11:36:57.189Z,7.10
2024-02-14T11:39:25.244Z,7.20
2024-02-14T11:41:53.425Z,7.20
2024-02-14T11:44:23.332Z,7.20
2024-02-14T11:46:52.842Z,7.20
2024-02-14T11:49:21.035Z,7.20
2024-02-14T11:51:49.252Z,7.20
2024-02-14T11:54:18.390Z,7.30
2024-02-14T11:56:46.491Z,7.20
2024-02-14T11:59:16.242Z,7.30
2024-02-14T12:01:44.356Z,7.30
2024-02-14T12:04:13.789Z,7.30
2024-02-14T12:06:42.855Z,7.40
2024-02-14T12:09:11.917Z,7.30
2024-02-14T12:11:42.210Z,7.30
2024-02-14T12:14:11.365Z,7.30
2024-02-14T12:16:41.447Z,7.30
2024-02-14T12:19:11.319Z,7.40
2024-02-14T12:21:41.768Z,7.30
2024-02-14T12:24:10.173Z,7.40
2024-02-14T12:26:39.914Z,7.40
2024-02-14T12:29:08.377Z,7.40
2024-02-14T12:31:36.999Z,7.40
2024-02-14T12:34:06.538Z,7.50
2024-02-14T12:36:35.457Z,7.50
2024-02-14T12:39:05.317Z,7.50
2024-02-14T12:41:36.786Z,7.50
2024-02-14T12:44:05.228Z,7.60
2024-02-14T12:46:33.968Z,7.60
2024-02-14T12:49:02.148Z,7.60
2024-02-14T12:51:30.959Z,7.60
2024-02-14T12:53:59.106Z,7.70
2024-02-14T12:56:28.604Z,7.60
2024-02-14T12:58:56.702Z,7.70
2024-02-14T13:01:24.963Z,7.70
2024-02-14T13:03:53.203Z,7.70
2024-02-14T13:06:22.018Z,7.80
2024-02-14T13:08:50.199Z,7.80
2024-02-14T13:11:20.166Z,7.80
2024-02-14T13:13:49.926Z,7.80
2024-02-14T13:16:18.024Z,7.80
2024-02-14T13:18:46.302Z,7.80
2024-02-14T13:21:14.858Z,7.80
2024-02-14T13:23:43.028Z,7.90
2024-02-14T13:26:11.315Z,7.90
2024-02-14T13:28:39.447Z,7.90
2024-02-14T13:31:08.920Z,7.90
2024-02-14T13:33:37.201Z,8.00
2024-02-14T13:36:06.206Z,8.00
2024-02-14T13:38:34.427Z,8.00
2024-02-14T13:41:02.620Z,8.00
2024-02-14T13:43:30.747Z,8.10
2024-02-14T13:45:58.883Z,8.10
2024-02-14T13:48:28.479Z,8.10
2024-02-14T13:50:56.713Z,8.10
2024-02-14T13:53:24.864Z,8.10
2024-02-14T13:55:54.423Z,8.10
2024-02-14T13:58:22.526Z,8.10
2024-02-14T14:00:50.715Z,8.10
2024-02-14T14:03:18.815Z,8.20
2024-02-14T14:05:48.506Z,8.20
2024-02-14T14:08:16.642Z,8.20
2024-02-14T14:10:46.278Z,8.20
2024-02-14T14:13:15.170Z,8.30
2024-02-14T14:15:43.481Z,8.30
2024-02-14T14:18:12.084Z,8.30
2024-02-14T14:20:40.454Z,8.40
2024-02-14T14:23:10.361Z,8.40
2024-02-14T14:25:38.966Z,8.40
2024-02-14T14:28:08.998Z,8.40
2024-02-14T14:30:37.253Z,8.50
2024-02-14T14:33:05.840Z,8.50
2024-02-14T14:35:34.812Z,8.50
2024-02-14T14:38:04.027Z,8.50
2024-02-14T14:40:33.508Z,8.60
2024-02-14T14:43:01.621Z,8.60
2024-02-14T14:45:30.116Z,8.60
2024-02-14T14:47:58.479Z,8.60
2024-02-14T14:50:26.835Z,8.60
2024-02-14T14:52:55.278Z,8.60
2024-02-14T14:55:23.462Z,8.60
2024-02-14T14:57:52.966Z,8.60
2024-02-14T15:00:22.009Z,8.70
2024-02-14T15:02:51.248Z,8.70
2024-02-14T15:05:20.494Z,8.70
2024-02-14T15:07:48.669Z,8.70
2024-02-14T15:10:16.875Z,8.70
2024-02-14T15:12:44.957Z,8.70
2024-02-14T15:15:15.507Z,8.80
2024-02-14T15:17:43.858Z,8.80
2024-02-14T15:20:12.904Z,8.80
2024-02-14T15:22:41.034Z,8.80
2024-02-14T15:25:09.704Z,8.80
2024-02-14T15:27:41.627Z,8.80
2024-02-14T15:30:40.186Z,8.80
2024-02-14T15:33:25.405Z,8.80
2024-02-14T15:35:54.136Z,8.80
2024-02-14T15:38:22.604Z,8.90
2024-02-14T15:40:53.804Z,8.80
2024-02-14T15:43:22.114Z,8.80
2024-02-14T15:45:50.263Z,8.90
2024-02-14T15:48:19.975Z,8.90
2024-02-14T15:50:48.279Z,8.90
2024-02-14T15:53:16.664Z,8.90
2024-02-14T15:55:44.757Z,8.90
2024-02-14T15:58:14.071Z,8.90
2024-02-14T16:00:42.800Z,8.90
2024-02-14T16:03:12.531Z,8.90
2024-02-14T16:05:44.159Z,8.90
2024-02-14T16:08:16.473Z,8.90
2024-02-14T16:10:45.615Z,8.90
2024-02-14T16:13:13.746Z,8.90
2024-02-14T16:15:41.876Z,8.90
2024-02-14T16:18:10.062Z,8.90
2024-02-14T16:20:38.369Z,9.00
2024-02-14T16:23:07.959Z,9.00
2024-02-14T16:25:38.941Z,9.00
2024-02-14T16:28:08.254Z,8.90
2024-02-14T16:30:36.519Z,9.00
2024-02-14T16:33:04.839Z,9.00
2024-02-14T16:35:32.996Z,9.00
2024-02-14T16:38:01.113Z,9.00
2024-02-14T16:40:32.628Z,9.00
2024-02-14T16:43:00.733Z,9.00
2024-02-14T16:45:28.932Z,9.00
2024-02-14T16:47:57.297Z,9.00
2024-02-14T16:50:26.328Z,9.00
2024-02-14T16:52:54.606Z,9.00
2024-02-14T16:55:22.829Z,9.00
2024-02-14T16:57:52.300Z,9.10
2024-02-14T17:00:21.041Z,9.10
2024-02-14T17:02:49.280Z,9.10
2024-02-14T17:05:17.598Z,9.10
2024-02-14T17:07:45.926Z,9.10
2024-02-14T17:10:14.530Z,9.10
2024-02-14T17:12:43.247Z,9.10
2024-02-14T17:15:12.826Z,9.20
2024-02-14T17:17:41.183Z,9.20
2024-02-14T17:20:11.221Z,9.20
2024-02-14T17:22:39.391Z,9.20
2024-02-14T17:25:10.364Z,9.20
2024-02-14T17:27:38.488Z,9.20
2024-02-14T17:30:10.032Z,9.20
2024-02-14T17:32:40.842Z,9.20
2024-02-14T17:35:10.474Z,9.20
2024-02-14T17:37:39.791Z,9.20
2024-02-14T17:40:09.660Z,9.20
2024-02-14T17:42:37.865Z,9.30
2024-02-14T17:45:07.617Z,9.30
2024-02-14T17:47:36.415Z,9.30
2024-02-14T17:50:06.936Z,9.20
2024-02-14T17:52:35.414Z,9.20
2024-02-14T17:55:05.243Z,9.30
2024-02-14T17:57:34.328Z,9.30
2024-02-14T18:00:02.889Z,9.30
2024-02-14T18:02:39.914Z,9.30
2024-02-14T18:05:10.378Z,9.20
2024-02-14T18:07:38.500Z,9.30
2024-02-14T18:10:07.358Z,9.30
2024-02-14T18:12:35.924Z,9.30
2024-02-14T18:15:04.997Z,9.30
2024-02-14T18:17:34.917Z,9.30
2024-02-14T18:20:03.556Z,9.30
2024-02-14T18:22:33.113Z,9.30
2024-02-14T18:25:01.235Z,9.30
2024-02-14T18:27:29.578Z,9.30
2024-02-14T18:29:57.951Z,9.40
2024-02-14T18:32:26.629Z,9.30
2024-02-14T18:34:55.238Z,9.30
2024-02-14T18:37:23.397Z,9.30
2024-02-14T18:39:54.980Z,9.40
2024-02-14T18:42:23.093Z,9.40
2024-02-14T18:44:51.310Z,9.40
2024-02-14T18:47:19.458Z,9.40
2024-02-14T18:49:47.720Z,9.40
2024-02-14T18:52:15.890Z,9.40
2024-02-14T18:54:44.038Z,9.40
2024-02-14T18:57:14.228Z,9.40
2024-02-14T18:59:43.481Z,9.40
2024-02-14T19:02:11.991Z,9.40
2024-02-14T19:04:40.129Z,9.40
2024-02-14T19:07:09.241Z,9.50
2024-02-14T19:09:37.664Z,9.50
2024-02-14T19:12:06.323Z,9.50
2024-02-14T19:15:23.369Z,9.50
2024-02-14T19:17:53.077Z,9.50
2024-02-14T19:20:21.235Z,9.50
2024-02-14T19:22:49.337Z,9.50
2024-02-14T19:25:17.564Z,9.50
2024-02-14T19:27:45.662Z,9.50
2024-02-14T19:30:14.471Z,9.50
2024-02-14T19:32:42.648Z,9.50
2024-02-14T19:35:12.318Z,9.60
2024-02-14T19:37:40.496Z,9.50
2024-02-14T19:40:12.243Z,9.60
2024-02-14T19:42:40.548Z,9.60
2024-02-14T19:45:10.125Z,9.60
2024-02-14T19:47:39.382Z,9.60
2024-02-14T19:50:10.586Z,9.60
2024-02-14T19:52:40.058Z,9.60
2024-02-14T19:55:09.057Z,9.60
2024-02-14T19:57:37.543Z,9.60
2024-02-14T20:00:06.431Z,9.60
2024-02-14T20:02:40.361Z,9.60
2024-02-14T20:05:09.922Z,9.60
2024-02-14T20:07:39.409Z,9.60
2024-02-14T20:10:08.449Z,9.60
2024-02-14T20:12:37.262Z,9.60
2024-02-14T20:15:06.670Z,9.60
2024-02-14T20:17:35.049Z,9.60
2024-02-14T20:20:05.219Z,9.60
2024-02-14T20:22:33.654Z,9.60
2024-02-14T20:25:03.717Z,9.60
2024-02-14T20:27:32.452Z,9.60
2024-02-14T20:30:00.800Z,9.60
2024-02-14T20:32:28.970Z,9.70
2024-02-14T20:34:57.170Z,9.60
2024-02-14T20:37:26.025Z,9.70
2024-02-14T20:39:54.109Z,9.60
2024-02-14T20:42:23.544Z,9.60
2024-02-14T20:44:51.699Z,9.60
2024-02-14T20:47:19.797Z,9.60
2024-02-14T20:49:47.912Z,9.60
2024-02-14T20:52:16.679Z,9.60
2024-02-14T20:54:44.760Z,9.60
2024-02-14T20:57:13.644Z,9.60
2024-02-14T20:59:43.119Z,9.60
2024-02-14T21:02:11.185Z,9.60
2024-02-14T21:04:39.409Z,9.60
2024-02-14T21:07:07.580Z,9.60
2024-02-14T21:09:35.816Z,9.60
2024-02-14T21:12:04.067Z,9.60
2024-02-14T21:14:33.168Z,9.60
2024-02-14T21:17:02.706Z,9.60
2024-02-14T21:19:31.530Z,9.60
2024-02-14T21:21:59.663Z,9.60
2024-02-14T21:24:27.764Z,9.60
2024-02-14T21:26:56.564Z,9.60
2024-02-14T21:29:25.013Z,9.50
2024-02-14T21:31:53.140Z,9.50
2024-02-14T21:34:22.750Z,9.50
2024-02-14T21:36:51.810Z,9.50
2024-02-14T21:39:19.936Z,9.60
2024-02-14T21:41:48.101Z,9.50
2024-02-14T21:44:16.245Z,9.50
2024-02-14T21:46:44.534Z,9.50
2024-02-14T21:49:15.773Z,9.50
2024-02-14T21:51:45.599Z,9.50
2024-02-14T21:54:13.699Z,9.50
2024-02-14T21:56:41.899Z,9.50
2024-02-14T21:59:10.031Z,9.60
2024-02-14T22:01:38.161Z,9.60
2024-02-14T22:04:06.549Z,9.60
2024-02-14T22:06:34.822Z,9.50
2024-02-14T22:09:06.477Z,9.60
2024-02-14T22:11:35.099Z,9.60
2024-02-14T22:14:03.209Z,9.60
2024-02-14T22:16:31.325Z,9.50
2024-02-14T22:18:59.591Z,9.50
2024-02-14T22:21:27.796Z,9.50
2024-02-14T22:23:56.026Z,9.60
2024-02-14T22:26:25.524Z,9.60
2024-02-14T22:28:53.696Z,9.60
2024-02-14T22:31:22.691Z,9.60
2024-02-14T22:33:53.194Z,9.60
2024-02-14T22:36:22.493Z,9.50
2024-02-14T22:38:50.736Z,9.60
2024-02-14T22:41:19.519Z,9.60
2024-02-14T22:43:51.007Z,9.60
2024-02-14T22:46:19.255Z,9.60
2024-02-14T22:48:47.723Z,9.60
2024-02-14T22:51:15.935Z,9.60
2024-02-14T22:53:44.126Z,9.60
2024-02-14T22:56:12.254Z,9.60
2024-02-14T22:58:40.353Z,9.60
2024-02-14T23:01:09.909Z,9.60
2024-02-14T23:03:38.009Z,9.60
2024-02-14T23:06:06.757Z,9.60
2024-02-14T23:08:34.929Z,9.60
2024-02-14T23:11:03.077Z,9.60
2024-02-14T23:13:31.167Z,9.60
2024-02-14T23:15:59.862Z,9.60
2024-02-14T23:18:29.931Z,9.60
2024-02-14T23:20:58.261Z,9.60
2024-02-14T23:23:26.438Z,9.50
2024-02-14T23:25:54.546Z,9.60
2024-02-14T23:28:22.858Z,9.50
2024-02-14T23:30:51.491Z,9.60
2024-02-14T23:33:20.667Z,9.60
2024-02-14T23:35:50.320Z,9.60
2024-02-14T23:38:18.493Z,9.60
2024-02-14T23:40:46.607Z,9.60
2024-02-14T23:43:14.735Z,9.60
2024-02-14T23:45:42.820Z,9.60
2024-02-14T23:48:11.956Z,9.60
2024-02-14T23:50:40.500Z,9.60
2024-02-14T23:53:10.353Z,9.60
2024-02-14T23:55:38.630Z,9.60
2024-02-14T23:58:06.729Z,9.60
